Carman, Canada
Current Conditions -  °F | °C
As of 5:00 PM on Saturday 20 Dec 2014 (Local Time) from CYWG Reporting Station
Freezing Drizzle Freezing Drizzle  
Wind Chill: -9°   Ceiling: 400
Heat Index: -3°   Visibility: 2.5mi
Dew Point: -4°   Wind: 13mph
Humidity: 93%   Direction: 170°S
Pressure: 29.91"   Gusts: NA
Location:  49.51°N, 98°W
Report Text: CYWG 202300Z 17011KT 2 1/2SM -FZDZ BR OVC004 M03/M04 A2991 RMK ST8 SLP143
Loading
Personal Weather Stations






























Interactive Weather Map New forecast layout! Learn more

10-Day Weather Forecast

Advertisements
Track Severe Weather on mobile